Time;durP1;ratioP1;P1;durP2;ratioP2;P2;SDS_P1;SDS_P2;PMS_P1;PMS_P2;Temp;Humidity;BMP_temperature;BMP_pressure;BME280_temperature;BME280_humidity;BME280_pressure;Samples;Min_cycle;Max_cycle;Signal;HPM_P1;HPM_P2
2021/09/04 00:02:11;;;;;;;21.10;10.10;;;;;;;14.69;63.17;98986.79;112268;1204;106631;-82
2021/09/04 00:04:41;;;;;;;22.60;9.80;;;;;;;14.66;63.18;98991.14;112231;1204;97647;-81
2021/09/04 00:07:10;;;;;;;21.80;9.50;;;;;;;14.63;63.26;98992.48;112238;1196;97587;-79
2021/09/04 00:09:38;;;;;;;20.00;8.70;;;;;;;14.62;63.31;98989.76;112266;1204;111173;-80
2021/09/04 00:12:08;;;;;;;21.60;10.70;;;;;;;14.59;63.47;98993.68;112259;1204;97539;-80
2021/09/04 00:14:37;;;;;;;19.80;10.20;;;;;;;14.57;63.59;98993.64;112252;1204;106368;-81
2021/09/04 00:17:05;;;;;;;21.80;10.80;;;;;;;14.56;63.62;98990.09;112256;1196;97807;-79
2021/09/04 00:19:33;;;;;;;21.90;10.80;;;;;;;14.54;63.53;98990.20;112289;1196;97752;-78
2021/09/04 00:22:01;;;;;;;26.70;10.80;;;;;;;14.52;63.58;98993.04;112285;1204;110739;-79
2021/09/04 00:24:29;;;;;;;20.00;10.00;;;;;;;14.50;63.60;98990.23;112317;1204;97662;-79
2021/09/04 00:26:58;;;;;;;23.20;10.40;;;;;;;14.47;63.75;98988.66;112261;1204;107450;-78
2021/09/04 00:29:28;;;;;;;21.70;10.30;;;;;;;14.46;63.69;98987.23;112298;1204;95029;-79
2021/09/04 00:31:56;;;;;;;22.60;10.30;;;;;;;14.44;63.83;98984.20;112329;1197;95023;-80
2021/09/04 00:34:25;;;;;;;22.90;10.60;;;;;;;14.42;63.88;98982.80;112345;1197;111147;-81
2021/09/04 00:36:53;;;;;;;21.90;10.90;;;;;;;14.40;63.95;98981.70;112257;1204;97700;-80
2021/09/04 00:39:21;;;;;;;22.40;11.00;;;;;;;14.38;63.88;98978.43;112257;1204;107485;-78
2021/09/04 00:41:50;;;;;;;23.10;10.30;;;;;;;14.37;63.96;98972.89;112259;1198;97656;-80
2021/09/04 00:44:20;;;;;;;22.80;11.10;;;;;;;14.35;64.00;98970.38;112298;1198;95040;-80
2021/09/04 00:46:49;;;;;;;20.10;10.40;;;;;;;14.34;64.00;98971.02;112282;1204;110884;-76
2021/09/04 00:49:17;;;;;;;21.80;10.80;;;;;;;14.31;64.04;98969.66;112306;1204;97525;-78
2021/09/04 00:51:45;;;;;;;23.10;11.30;;;;;;;14.29;64.07;98971.93;112299;1204;107394;-79
2021/09/04 00:54:14;;;;;;;22.00;10.80;;;;;;;14.27;64.19;98969.42;112274;1196;94959;-79
2021/09/04 00:56:44;;;;;;;21.90;10.90;;;;;;;14.26;64.25;98974.67;112313;1197;96872;-79
2021/09/04 00:59:13;;;;;;;22.60;11.20;;;;;;;14.26;64.41;98974.52;112249;1204;111094;-79
2021/09/04 01:01:40;;;;;;;23.60;11.10;;;;;;;14.25;64.48;98972.25;112279;1204;97520;-80
2021/09/04 01:04:10;;;;;;;22.70;10.50;;;;;;;14.26;64.60;98972.59;112194;1204;107537;-80
2021/09/04 01:06:39;;;;;;;24.20;11.90;;;;;;;14.26;64.67;98970.05;112207;1204;97589;-79
2021/09/04 01:09:08;;;;;;;23.90;11.90;;;;;;;14.27;64.60;98974.44;112165;1196;97656;-80
2021/09/04 01:11:36;;;;;;;25.10;11.10;;;;;;;14.27;64.70;98976.92;112255;1204;111037;-79
2021/09/04 01:14:05;;;;;;;23.90;11.70;;;;;;;14.28;64.76;98978.46;112267;1197;94991;-79
2021/09/04 01:16:39;;;;;;;22.90;11.30;;;;;;;14.27;64.93;98982.08;112235;1204;107459;-78
2021/09/04 01:19:10;;;;;;;24.80;11.70;;;;;;;14.27;64.90;98985.98;112250;1204;97607;-79
2021/09/04 01:21:38;;;;;;;23.70;12.30;;;;;;;14.27;64.95;98988.29;112301;1197;97679;-80
2021/09/04 01:24:08;;;;;;;24.60;11.70;;;;;;;14.27;65.00;98988.70;112263;1204;110620;-79
2021/09/04 01:26:37;;;;;;;22.80;12.20;;;;;;;14.27;65.04;98990.13;112275;1204;97607;-79
2021/09/04 01:29:05;;;;;;;24.20;11.80;;;;;;;14.27;65.07;98986.21;112289;1204;107316;-79
2021/09/04 01:31:32;;;;;;;25.60;11.60;;;;;;;14.27;65.13;98984.81;112305;1204;97650;-79
2021/09/04 01:34:01;;;;;;;25.40;12.50;;;;;;;14.26;65.14;98992.52;112299;1197;97666;-79
2021/09/04 01:36:36;;;;;;;22.10;11.30;;;;;;;14.24;64.99;98988.46;112255;1204;111113;-78
2021/09/04 01:39:08;;;;;;;22.40;11.50;;;;;;;14.19;65.04;98985.88;112267;1204;97680;-79
2021/09/04 01:41:40;;;;;;;24.80;11.70;;;;;;;14.15;65.18;98986.02;112263;1204;106476;-78
2021/09/04 01:44:09;;;;;;;22.30;11.10;;;;;;;14.12;65.24;98985.92;112265;1196;97632;-80
2021/09/04 01:46:37;;;;;;;21.50;11.00;;;;;;;14.10;65.35;98989.30;112314;1196;97661;-80
2021/09/04 01:49:07;;;;;;;25.00;12.80;;;;;;;14.10;65.33;98987.18;112261;1204;111282;-77
2021/09/04 01:51:36;;;;;;;25.00;11.80;;;;;;;14.10;65.39;98989.31;112265;1204;97594;-76
2021/09/04 01:54:04;;;;;;;22.20;11.70;;;;;;;14.09;65.48;98985.82;112238;1204;107381;-77
2021/09/04 01:56:32;;;;;;;23.60;11.50;;;;;;;14.09;65.53;98986.41;112226;1199;97670;-77
2021/09/04 01:59:00;;;;;;;24.90;12.40;;;;;;;14.08;65.57;98984.90;112273;1196;96161;-79
2021/09/04 02:01:28;;;;;;;21.90;11.30;;;;;;;14.09;65.65;98982.48;112307;1204;110156;-76
2021/09/04 02:03:57;;;;;;;23.00;11.70;;;;;;;14.09;65.63;98985.80;112247;1204;97639;-79
2021/09/04 02:06:26;;;;;;;26.20;12.50;;;;;;;14.09;65.65;98984.19;112238;1204;107454;-78
2021/09/04 02:08:53;;;;;;;25.30;12.10;;;;;;;14.06;65.65;98982.50;112248;1204;97730;-79
2021/09/04 02:11:21;;;;;;;25.20;12.70;;;;;;;14.04;65.65;98981.52;112248;1198;97575;-79
2021/09/04 02:13:50;;;;;;;24.80;12.70;;;;;;;14.02;65.66;98978.45;112235;1197;111160;-80
2021/09/04 02:16:19;;;;;;;24.20;12.60;;;;;;;13.99;65.76;98981.92;112273;1204;97564;-80
2021/09/04 02:18:47;;;;;;;24.40;12.10;;;;;;;13.94;65.75;98978.39;112283;1204;107727;-80
2021/09/04 02:21:14;;;;;;;28.50;12.30;;;;;;;13.91;65.86;98982.08;112248;1197;98397;-80
2021/09/04 02:23:42;;;;;;;23.90;12.30;;;;;;;13.90;65.90;98984.11;112262;1197;97674;-80
2021/09/04 02:26:10;;;;;;;24.40;12.30;;;;;;;13.88;65.93;98987.29;112246;1204;110799;-79
2021/09/04 02:28:38;;;;;;;25.90;12.50;;;;;;;13.87;65.93;98984.41;112286;1204;97572;-76
2021/09/04 02:31:06;;;;;;;23.70;13.40;;;;;;;13.84;66.03;98981.81;112269;1204;107283;-80
2021/09/04 02:33:35;;;;;;;22.70;12.50;;;;;;;13.82;66.00;98984.13;112256;1198;98268;-78
2021/09/04 02:36:04;;;;;;;23.40;11.80;;;;;;;13.80;66.01;98978.78;112237;1196;97576;-79
2021/09/04 02:38:32;;;;;;;24.20;13.70;;;;;;;13.76;65.99;98976.04;112196;1204;110765;-80
2021/09/04 02:41:00;;;;;;;29.00;13.80;;;;;;;13.73;66.19;98974.02;112225;1204;97665;-80
2021/09/04 02:43:28;;;;;;;29.20;13.90;;;;;;;13.71;66.24;98973.08;112257;1204;107492;-78
2021/09/04 02:45:56;;;;;;;24.30;12.50;;;;;;;13.70;66.25;98975.36;112275;1204;97580;-79
2021/09/04 02:48:24;;;;;;;23.20;13.00;;;;;;;13.70;66.36;98981.05;112287;1198;97639;-80
2021/09/04 02:50:53;;;;;;;26.80;13.40;;;;;;;13.71;66.44;98982.02;112277;1204;111124;-80
2021/09/04 02:53:21;;;;;;;25.10;14.00;;;;;;;13.73;66.38;98986.48;112293;1198;97673;-80
2021/09/04 02:55:50;;;;;;;25.30;13.20;;;;;;;13.75;66.44;98980.61;112281;1204;107429;-78
2021/09/04 02:58:18;;;;;;;25.40;13.90;;;;;;;13.76;66.48;98978.95;112247;1196;97606;-80
2021/09/04 03:00:46;;;;;;;23.60;12.60;;;;;;;13.77;66.54;98981.31;112241;1197;97562;-80
2021/09/04 03:03:14;;;;;;;31.90;12.90;;;;;;;13.78;66.56;98982.46;112244;1204;111091;-80
2021/09/04 03:05:42;;;;;;;31.00;13.60;;;;;;;13.78;66.59;98978.43;112251;1204;97551;-80
2021/09/04 03:08:12;;;;;;;28.50;14.10;;;;;;;13.77;66.65;98982.91;112284;1204;107572;-79
2021/09/04 03:10:40;;;;;;;26.50;14.50;;;;;;;13.77;66.73;98983.86;112188;1198;95048;-83
2021/09/04 03:13:08;;;;;;;26.50;14.30;;;;;;;13.77;66.71;98981.90;112262;1197;97636;-82
2021/09/04 03:15:36;;;;;;;32.80;14.80;;;;;;;13.78;66.78;98983.05;112244;1196;110933;-80
2021/09/04 03:18:04;;;;;;;24.80;13.70;;;;;;;13.79;66.78;98983.87;112235;1204;97646;-81
2021/09/04 03:20:32;;;;;;;28.60;14.60;;;;;;;13.78;66.74;98986.42;112261;1204;106555;-81
2021/09/04 03:23:00;;;;;;;26.30;14.40;;;;;;;13.75;66.81;98985.38;112226;1198;97674;-84
2021/09/04 03:25:29;;;;;;;28.10;14.70;;;;;;;13.74;66.80;98987.52;112235;1197;97694;-83
2021/09/04 03:27:57;;;;;;;28.10;14.50;;;;;;;13.73;66.90;98989.55;112263;1204;110903;-81
2021/09/04 03:30:25;;;;;;;27.50;14.70;;;;;;;13.72;66.96;98987.11;112229;1204;97650;-81
2021/09/04 03:32:53;;;;;;;27.40;14.30;;;;;;;13.70;67.02;98981.55;112255;1204;107537;-81
2021/09/04 03:35:21;;;;;;;27.70;14.80;;;;;;;13.68;66.94;98984.20;112224;1204;98163;-79
2021/09/04 03:37:49;;;;;;;29.90;14.30;;;;;;;13.66;66.95;98991.75;112282;1204;97675;-81
2021/09/04 03:40:16;;;;;;;26.50;15.50;;;;;;;13.64;67.00;98997.20;112259;1204;110880;-80
2021/09/04 03:42:45;;;;;;;26.70;14.90;;;;;;;13.61;67.11;98997.27;112258;1204;97721;-78
2021/09/04 03:45:13;;;;;;;26.50;14.10;;;;;;;13.60;67.12;98997.73;112241;1204;106290;-79
2021/09/04 03:47:41;;;;;;;26.20;14.20;;;;;;;13.59;67.13;98999.95;112227;1198;97679;-79
2021/09/04 03:50:11;;;;;;;26.00;14.30;;;;;;;13.58;67.20;98995.09;112250;1198;96859;-80
2021/09/04 03:52:39;;;;;;;26.50;13.90;;;;;;;13.55;67.24;99001.92;112242;1204;111061;-80
2021/09/04 03:55:08;;;;;;;26.40;13.20;;;;;;;13.53;67.09;99008.45;112263;1204;95023;-79
2021/09/04 03:57:36;;;;;;;33.90;14.10;;;;;;;13.49;67.18;99009.74;112213;1204;107431;-79
2021/09/04 04:00:06;;;;;;;23.30;12.30;;;;;;;13.43;67.20;99009.85;112194;1198;97598;-79
2021/09/04 04:02:34;;;;;;;28.20;12.70;;;;;;;13.39;67.14;99011.60;112192;1203;97676;-79
2021/09/04 04:05:04;;;;;;;25.90;13.70;;;;;;;13.35;67.21;99013.76;112236;1197;111244;-79
2021/09/04 04:07:33;;;;;;;27.50;13.50;;;;;;;13.31;67.24;99016.61;112246;1204;97675;-80
2021/09/04 04:10:01;;;;;;;26.70;12.80;;;;;;;13.29;67.39;99018.56;112253;1204;108431;-81
2021/09/04 04:12:29;;;;;;;26.80;13.70;;;;;;;13.27;67.38;99023.16;112270;1198;97653;-80
2021/09/04 04:14:56;;;;;;;25.20;14.00;;;;;;;13.25;67.37;99022.05;112315;1197;97632;-80
2021/09/04 04:17:25;;;;;;;26.40;14.50;;;;;;;13.23;67.53;99024.69;112296;1204;111115;-81
2021/09/04 04:19:55;;;;;;;26.60;14.40;;;;;;;13.24;67.67;99025.04;112305;1197;97648;-80
2021/09/04 04:22:23;;;;;;;25.50;14.30;;;;;;;13.25;67.63;99027.41;112245;1204;107539;-80
2021/09/04 04:24:51;;;;;;;26.20;14.80;;;;;;;13.26;67.65;99025.54;112200;1204;97761;-81
2021/09/04 04:27:19;;;;;;;26.40;15.00;;;;;;;13.29;67.67;99029.94;112209;1198;97641;-82
2021/09/04 04:29:47;;;;;;;28.90;14.80;;;;;;;13.31;67.83;99040.31;112257;1197;110975;-80
2021/09/04 04:32:15;;;;;;;26.60;14.50;;;;;;;13.32;67.75;99037.84;112211;1204;97649;-81
2021/09/04 04:34:43;;;;;;;25.60;13.40;;;;;;;13.33;67.78;99037.42;112217;1197;107467;-84
2021/09/04 04:37:10;;;;;;;25.50;14.10;;;;;;;13.32;67.79;99034.83;112244;1197;97573;-82
2021/09/04 04:39:38;;;;;;;25.00;14.10;;;;;;;13.32;67.81;99037.17;112243;1198;97666;-80
2021/09/04 04:42:06;;;;;;;26.80;13.20;;;;;;;13.32;67.86;99041.25;112234;1204;111124;-80
2021/09/04 04:44:34;;;;;;;28.20;14.90;;;;;;;13.33;67.91;99041.52;112259;1204;97662;-79
2021/09/04 04:47:02;;;;;;;27.10;15.70;;;;;;;13.34;67.90;99039.66;112250;1204;107165;-81
2021/09/04 04:49:30;;;;;;;26.50;15.30;;;;;;;13.36;68.01;99038.98;112257;1198;97581;-81
2021/09/04 04:51:58;;;;;;;31.50;16.10;;;;;;;13.37;68.00;99039.17;112276;1198;98040;-81
2021/09/04 04:54:26;;;;;;;29.90;16.70;;;;;;;13.39;68.04;99040.80;112241;1204;111081;-80
2021/09/04 04:56:55;;;;;;;28.60;17.20;;;;;;;13.41;68.09;99040.84;112269;1198;95007;-79
2021/09/04 04:59:24;;;;;;;28.20;15.90;;;;;;;13.44;68.08;99034.25;112205;1204;107432;-77
2021/09/04 05:01:52;;;;;;;28.00;15.60;;;;;;;13.48;68.15;99038.29;112203;1197;97589;-78
2021/09/04 05:04:21;;;;;;;30.60;16.20;;;;;;;13.53;68.23;99043.61;112201;1197;96431;-77
2021/09/04 05:06:49;;;;;;;29.30;15.60;;;;;;;13.55;68.18;99044.47;112191;1204;111160;-80
2021/09/04 05:09:18;;;;;;;31.90;16.70;;;;;;;13.59;68.28;99047.21;112221;1204;97572;-79
2021/09/04 05:11:47;;;;;;;30.60;17.40;;;;;;;13.63;68.24;99044.20;112187;1198;105715;-78
2021/09/04 05:14:15;;;;;;;35.30;17.90;;;;;;;13.65;68.28;99049.47;112209;1204;95508;-78
2021/09/04 05:16:43;;;;;;;29.10;16.60;;;;;;;13.69;68.31;99049.52;112249;1198;98291;-77
2021/09/04 05:19:11;;;;;;;29.70;16.80;;;;;;;13.73;68.43;99048.90;112240;1204;111173;-77
2021/09/04 05:21:39;;;;;;;28.80;16.50;;;;;;;13.77;68.42;99047.80;112256;1204;97560;-79
2021/09/04 05:24:07;;;;;;;32.00;17.20;;;;;;;13.81;68.44;99052.05;112221;1198;107614;-80
2021/09/04 05:26:34;;;;;;;32.50;17.60;;;;;;;13.87;68.38;99054.27;112233;1198;97599;-80
2021/09/04 05:29:02;;;;;;;27.00;16.30;;;;;;;13.90;68.43;99055.79;112239;1197;97674;-81
2021/09/04 05:31:30;;;;;;;29.10;17.40;;;;;;;13.92;68.47;99054.16;112205;1204;111117;-81
2021/09/04 05:33:59;;;;;;;30.10;16.80;;;;;;;13.95;68.56;99054.09;112086;1204;97584;-81
2021/09/04 05:36:27;;;;;;;27.80;17.00;;;;;;;14.00;68.41;99050.43;112278;1204;107518;-80
2021/09/04 05:38:55;;;;;;;30.40;19.00;;;;;;;14.04;68.47;99046.07;112177;1196;97693;-79
2021/09/04 05:41:23;;;;;;;34.30;18.10;;;;;;;14.06;68.43;99045.88;112293;1199;97654;-69
2021/09/04 05:43:53;;;;;;;30.60;16.60;;;;;;;14.09;68.57;99047.02;112256;1197;111835;-69
2021/09/04 05:46:21;;;;;;;31.40;17.70;;;;;;;14.13;68.60;99051.30;112234;1204;97649;-70
2021/09/04 05:48:49;;;;;;;29.70;17.60;;;;;;;14.20;68.73;99052.52;112182;1204;108076;-70
2021/09/04 05:51:16;;;;;;;38.30;18.40;;;;;;;14.27;68.79;99058.08;112187;1198;97647;-69
2021/09/04 05:53:46;;;;;;;30.20;17.40;;;;;;;14.34;68.76;99058.69;112204;1204;97652;-69
2021/09/04 05:56:13;;;;;;;30.60;17.20;;;;;;;14.42;68.86;99057.71;112204;1204;111441;-71
2021/09/04 05:58:41;;;;;;;33.90;18.00;;;;;;;14.47;68.85;99059.88;112251;1204;97671;-70
2021/09/04 06:01:10;;;;;;;32.80;16.60;;;;;;;14.52;68.89;99062.67;112186;1204;108044;-69
2021/09/04 06:03:39;;;;;;;31.20;17.00;;;;;;;14.58;68.92;99060.70;112255;1204;97719;-69
2021/09/04 06:06:09;;;;;;;32.20;17.80;;;;;;;14.66;68.95;99064.15;112243;1203;96951;-67
2021/09/04 06:08:37;;;;;;;29.20;15.60;;;;;;;14.73;68.99;99064.93;112227;1204;111676;-69
2021/09/04 06:11:05;;;;;;;28.90;17.20;;;;;;;14.81;68.86;99063.00;112181;1204;95760;-68
2021/09/04 06:13:33;;;;;;;32.30;16.60;;;;;;;14.87;68.83;99066.16;112124;1204;107508;-68
2021/09/04 06:16:02;;;;;;;28.70;15.80;;;;;;;14.92;68.94;99072.53;112177;1204;97584;-69
2021/09/04 06:18:30;;;;;;;28.00;16.30;;;;;;;14.97;68.83;99074.41;112168;1204;98342;-67
2021/09/04 06:20:58;;;;;;;29.80;16.10;;;;;;;15.02;68.81;99072.33;112208;1204;111637;-68
2021/09/04 06:23:26;;;;;;;30.40;16.10;;;;;;;15.06;68.87;99071.61;112144;1204;97581;-67
2021/09/04 06:25:53;;;;;;;32.10;17.00;;;;;;;15.13;68.94;99073.52;112281;1204;107950;-69
2021/09/04 06:28:21;;;;;;;32.40;16.50;;;;;;;15.23;69.08;99079.23;112147;1204;96054;-67
2021/09/04 06:30:49;;;;;;;29.10;17.00;;;;;;;15.33;69.04;99085.23;112098;1203;97546;-68
2021/09/04 06:33:17;;;;;;;28.30;16.40;;;;;;;15.44;69.00;99089.05;111815;1200;111633;-69
2021/09/04 06:35:45;;;;;;;29.50;17.10;;;;;;;15.56;68.96;99088.28;112125;1199;97570;-69
2021/09/04 06:38:13;;;;;;;29.20;16.40;;;;;;;15.69;68.96;99095.15;112010;1204;107769;-70
2021/09/04 06:40:41;;;;;;;29.50;17.20;;;;;;;15.77;69.19;99098.16;112131;1196;98342;-70
2021/09/04 06:43:09;;;;;;;31.20;16.50;;;;;;;15.83;69.12;99097.77;112185;1204;97712;-68
2021/09/04 06:45:38;;;;;;;29.10;17.40;;;;;;;15.89;69.04;99099.54;112140;1199;112109;-67
2021/09/04 06:48:07;;;;;;;28.70;17.30;;;;;;;15.92;69.06;99094.24;112191;1198;97597;-70
2021/09/04 06:50:36;;;;;;;32.60;17.70;;;;;;;15.96;68.90;99096.45;112218;1205;108402;-72
2021/09/04 06:53:04;;;;;;;30.60;17.90;;;;;;;16.01;69.02;99094.54;112196;1200;97570;-80
2021/09/04 06:55:31;;;;;;;28.80;16.80;;;;;;;16.05;69.13;99094.34;112101;1204;98453;-73
2021/09/04 06:58:00;;;;;;;34.80;19.00;;;;;;;16.08;69.02;99093.27;112231;1204;111969;-68
2021/09/04 07:00:28;;;;;;;30.70;19.00;;;;;;;16.17;69.04;99094.45;112190;1204;98164;-77
2021/09/04 07:02:57;;;;;;;33.90;19.90;;;;;;;16.29;68.99;99101.05;112201;1204;108442;-73
2021/09/04 07:05:25;;;;;;;31.30;19.40;;;;;;;16.41;68.79;99098.82;112225;1200;95105;-74
2021/09/04 07:07:53;;;;;;;31.10;19.10;;;;;;;16.48;68.95;99105.63;112184;1204;98090;-76
2021/09/04 07:10:21;;;;;;;32.80;20.60;;;;;;;16.54;68.97;99108.44;112126;1204;111301;-78
2021/09/04 07:12:49;;;;;;;31.30;20.10;;;;;;;16.61;68.97;99108.84;112087;1204;98068;-76
2021/09/04 07:15:17;;;;;;;33.60;20.40;;;;;;;16.68;69.07;99114.29;112205;1200;107415;-77
2021/09/04 07:17:47;;;;;;;31.90;20.40;;;;;;;16.71;68.81;99119.89;112159;1203;97648;-72
2021/09/04 07:20:15;;;;;;;29.80;19.20;;;;;;;16.71;68.90;99119.86;112219;1199;97678;-73
2021/09/04 07:22:44;;;;;;;32.10;19.50;;;;;;;16.70;68.99;99121.58;112255;1204;111170;-72
2021/09/04 07:25:13;;;;;;;32.50;18.90;;;;;;;16.70;69.00;99125.19;112187;1200;97554;-75
2021/09/04 07:27:41;;;;;;;30.90;19.00;;;;;;;16.66;68.94;99126.09;112113;1196;108042;-70
2021/09/04 07:30:09;;;;;;;30.10;18.10;;;;;;;16.65;68.94;99125.99;112140;1200;97551;-71
2021/09/04 07:32:37;;;;;;;27.60;17.60;;;;;;;16.66;68.97;99123.59;112172;1196;95712;-74
2021/09/04 07:35:07;;;;;;;30.90;19.20;;;;;;;16.72;68.92;99127.26;112086;1205;111199;-73
2021/09/04 07:37:34;;;;;;;30.50;19.20;;;;;;;16.87;68.82;99125.66;112230;1200;97504;-76
2021/09/04 07:40:04;;;;;;;28.10;17.80;;;;;;;17.00;68.94;99126.55;112219;1200;108759;-72
2021/09/04 07:42:34;;;;;;;28.60;17.80;;;;;;;17.14;68.90;99127.67;112214;1197;94997;-72
2021/09/04 07:45:03;;;;;;;31.70;18.80;;;;;;;17.36;68.83;99124.98;112210;1202;97601;-78
2021/09/04 07:47:31;;;;;;;33.80;22.00;;;;;;;17.52;68.71;99126.23;112237;1198;110631;-80
2021/09/04 07:49:59;;;;;;;42.10;27.20;;;;;;;17.57;68.83;99125.20;112159;1204;97826;-80
2021/09/04 07:52:29;;;;;;;33.10;20.80;;;;;;;17.58;68.80;99126.39;112143;1204;108489;-78
2021/09/04 07:54:57;;;;;;;29.50;17.90;;;;;;;17.58;68.89;99128.56;112027;1207;97776;-75
2021/09/04 07:57:25;;;;;;;32.70;19.70;;;;;;;17.58;68.90;99131.59;112205;1204;95005;-76
2021/09/04 07:59:55;;;;;;;31.90;18.40;;;;;;;17.57;68.65;99133.66;112196;1196;111130;-77
2021/09/04 08:02:24;;;;;;;32.30;17.60;;;;;;;17.55;68.82;99138.17;112140;1198;96462;-81
2021/09/04 08:04:54;;;;;;;30.30;16.70;;;;;;;17.63;68.79;99144.41;112326;1204;107480;-81
2021/09/04 08:07:24;;;;;;;31.60;18.90;;;;;;;17.72;68.61;99145.73;112248;1199;97584;-79
2021/09/04 08:09:52;;;;;;;28.80;16.80;;;;;;;17.77;68.68;99148.28;112246;1199;97806;-79
2021/09/04 08:12:21;;;;;;;30.20;18.20;;;;;;;17.78;68.68;99153.46;112249;1198;111642;-78
2021/09/04 08:14:51;;;;;;;30.40;17.90;;;;;;;17.73;68.73;99150.52;112183;1204;94956;-77
2021/09/04 08:17:19;;;;;;;29.70;16.50;;;;;;;17.69;68.72;99155.42;112210;1209;107723;-78
2021/09/04 08:19:47;;;;;;;29.00;17.50;;;;;;;17.66;68.69;99153.99;112268;1198;97597;-77
2021/09/04 08:22:17;;;;;;;29.10;17.00;;;;;;;17.64;68.66;99153.74;112218;1203;95054;-79
2021/09/04 08:24:45;;;;;;;30.80;17.30;;;;;;;17.61;68.69;99155.92;112249;1204;111136;-78
2021/09/04 08:27:13;;;;;;;28.90;15.70;;;;;;;17.57;68.66;99156.40;112194;1205;98271;-78
2021/09/04 08:29:41;;;;;;;28.80;16.30;;;;;;;17.54;68.73;99156.88;112251;1204;107260;-81
2021/09/04 08:32:09;;;;;;;29.00;16.60;;;;;;;17.59;68.66;99157.01;112210;1204;95134;-79
2021/09/04 08:34:36;;;;;;;51.90;30.90;;;;;;;18.18;68.12;99157.23;112210;1196;97596;-77
2021/09/04 08:37:08;;;;;;;31.50;17.00;;;;;;;19.21;67.57;99157.34;112218;1204;111180;-78
2021/09/04 08:39:36;;;;;;;28.70;16.20;;;;;;;19.58;67.92;99158.75;112227;1204;97595;-81
2021/09/04 08:42:04;;;;;;;26.60;14.80;;;;;;;20.16;67.63;99156.95;112241;1204;107293;-80
2021/09/04 08:44:34;;;;;;;27.80;15.00;;;;;;;20.55;67.67;99156.45;112177;1200;97660;-80
2021/09/04 08:47:05;;;;;;;25.30;14.50;;;;;;;21.36;67.38;99154.40;112245;1196;97603;-77
2021/09/04 08:49:38;;;;;;;27.20;15.70;;;;;;;22.15;66.96;99153.54;112067;1199;111165;-82
2021/09/04 08:52:06;;;;;;;;;;;;;;;22.67;66.62;99152.80;112253;1198;97573;-78
2021/09/04 08:54:34;;;;;;;25.30;15.20;;;;;;;22.49;66.80;99153.90;112162;1205;107564;-78
2021/09/04 08:57:02;;;;;;;23.80;13.70;;;;;;;22.32;67.38;99154.10;112708;1197;96278;-74
2021/09/04 08:59:30;;;;;;;27.10;14.70;;;;;;;22.13;67.39;99153.36;112095;1204;96054;-69
2021/09/04 09:01:59;;;;;;;23.50;14.50;;;;;;;21.93;67.26;99153.17;112059;1203;112494;-68
2021/09/04 09:04:28;;;;;;;27.10;14.60;;;;;;;21.67;66.92;99149.77;112162;1205;97587;-76
2021/09/04 09:06:56;;;;;;;28.20;16.40;;;;;;;21.38;66.98;99151.07;112489;1200;107185;-69
2021/09/04 09:09:26;;;;;;;30.00;16.20;;;;;;;21.19;67.25;99156.85;112302;1205;96439;-71
2021/09/04 09:11:56;;;;;;;26.60;15.60;;;;;;;21.00;67.28;99158.14;112325;1200;97648;-69
2021/09/04 09:14:28;;;;;;;27.80;15.80;;;;;;;20.82;67.16;99160.63;112093;1205;111227;-70
2021/09/04 09:16:59;;;;;;;25.60;14.80;;;;;;;20.64;67.16;99158.82;112219;1200;97632;-70
2021/09/04 09:19:37;;;;;;;26.10;15.30;;;;;;;20.44;67.00;99162.64;112167;1200;107895;-70
2021/09/04 09:22:17;;;;;;;25.70;14.50;;;;;;;20.28;66.83;99167.50;112205;1205;97620;-71
2021/09/04 09:24:46;;;;;;;27.10;14.00;;;;;;;20.14;66.73;99169.42;112307;1204;96428;-72
2021/09/04 09:27:17;;;;;;;24.80;13.40;;;;;;;19.99;66.58;99171.80;112276;1200;111579;-71
2021/09/04 09:29:51;;;;;;;24.60;12.80;;;;;;;19.86;66.43;99173.52;112271;1200;97665;-82
2021/09/04 09:32:20;;;;;;;26.60;13.80;;;;;;;19.78;66.39;99172.45;112287;1204;107510;-76
2021/09/04 09:34:50;;;;;;;57.60;34.80;;;;;;;19.68;66.39;99177.98;112198;1200;97748;-76
2021/09/04 09:37:18;;;;;;;44.30;31.70;;;;;;;19.59;66.20;99183.84;112183;1200;97548;-72
2021/09/04 09:39:48;;;;;;;38.40;23.00;;;;;;;19.60;66.06;99188.27;112384;1198;111129;-74
2021/09/04 09:42:17;;;;;;;26.30;13.80;;;;;;;19.48;65.91;99189.36;113070;1196;97677;-73
2021/09/04 09:44:46;;;;;;;26.50;14.00;;;;;;;19.35;65.88;99190.92;112227;1196;107770;-74
2021/09/04 09:47:14;;;;;;;23.00;12.00;;;;;;;19.30;65.85;99191.84;112606;1204;97728;-76
2021/09/04 09:49:50;;;;;;;21.70;11.00;;;;;;;19.22;65.87;99188.55;112329;1203;97629;-75
2021/09/04 09:52:18;;;;;;;23.20;11.30;;;;;;;19.18;65.66;99191.83;112280;1204;111076;-76
2021/09/04 09:54:45;;;;;;;22.70;11.10;;;;;;;19.17;65.68;99188.48;112212;1205;97642;-73
2021/09/04 09:57:18;;;;;;;22.60;10.80;;;;;;;19.17;65.63;99190.64;112223;1205;108255;-74
2021/09/04 09:59:51;;;;;;;21.00;9.90;;;;;;;19.18;65.62;99191.39;112184;1196;97669;-74
2021/09/04 10:02:19;;;;;;;22.80;11.30;;;;;;;19.19;65.56;99197.05;112209;1199;95070;-73
2021/09/04 10:04:50;;;;;;;22.50;11.80;;;;;;;19.18;65.47;99197.77;112272;1199;111258;-78
2021/09/04 10:07:18;;;;;;;23.00;11.30;;;;;;;19.16;65.39;99197.42;112268;1204;95036;-74
2021/09/04 10:09:46;;;;;;;22.50;10.80;;;;;;;19.15;65.23;99194.49;112257;1200;107448;-75
2021/09/04 10:12:19;;;;;;;23.60;12.40;;;;;;;19.12;65.14;99197.70;112172;1203;95872;-73
2021/09/04 10:14:50;;;;;;;25.30;11.40;;;;;;;19.08;65.10;99188.98;112192;1203;98008;-73
2021/09/04 10:17:23;;;;;;;22.90;11.10;;;;;;;19.10;65.18;99186.23;112051;1205;112823;-74
2021/09/04 10:19:52;;;;;;;22.20;10.00;;;;;;;19.12;65.08;99183.83;112266;1204;96254;-78
2021/09/04 10:22:20;;;;;;;23.30;10.30;;;;;;;19.16;64.97;99185.35;112197;1203;106595;-79
2021/09/04 10:24:53;;;;;;;27.90;12.10;;;;;;;19.30;65.01;99184.25;112178;1198;97654;-80
2021/09/04 10:27:49;;;;;;;21.80;9.90;;;;;;;19.51;64.97;99182.70;112134;1203;98457;-72
2021/09/04 10:30:19;;;;;;;19.50;9.00;;;;;;;19.70;64.72;99184.84;112064;1205;111167;-73
2021/09/04 10:33:11;;;;;;;22.20;9.80;;;;;;;19.75;64.67;99186.02;112284;1200;97686;-72
2021/09/04 10:35:45;;;;;;;21.60;9.40;;;;;;;19.82;64.50;99185.38;112260;1204;108071;-76
2021/09/04 10:38:19;;;;;;;19.50;8.90;;;;;;;19.84;64.36;99191.21;112263;1200;97655;-72
2021/09/04 10:40:49;;;;;;;19.90;9.20;;;;;;;19.81;64.23;99194.95;112137;1204;97672;-74
2021/09/04 10:43:19;;;;;;;20.40;9.10;;;;;;;19.79;64.19;99198.55;112123;1203;111145;-75
2021/09/04 10:45:52;;;;;;;21.00;9.50;;;;;;;19.76;63.99;99197.45;112244;1204;97505;-78
2021/09/04 10:48:24;;;;;;;;;;;;;;;19.68;63.97;99201.27;112355;1200;105758;-73
2021/09/04 10:51:08;;;;;;;18.20;8.00;;;;;;;19.59;63.84;99199.49;112237;1203;97680;-76
2021/09/04 10:53:43;;;;;;;19.50;8.90;;;;;;;19.56;64.01;99198.34;112257;1205;97674;-74
2021/09/04 10:56:21;;;;;;;18.10;8.70;;;;;;;19.57;63.85;99196.05;112260;1204;110583;-76
2021/09/04 10:58:54;;;;;;;19.50;9.00;;;;;;;19.60;63.79;99195.45;112101;1198;97640;-75
2021/09/04 11:01:41;;;;;;;19.70;9.20;;;;;;;19.62;63.77;99196.27;112234;1205;107040;-73
2021/09/04 11:04:10;;;;;;;20.00;8.40;;;;;;;19.62;63.61;99192.64;112129;1203;95896;-73
2021/09/04 11:06:37;;;;;;;19.90;8.70;;;;;;;19.65;63.72;99190.20;112223;1196;97686;-75
2021/09/04 11:09:05;;;;;;;20.90;9.10;;;;;;;19.70;63.53;99192.05;112127;1204;111110;-75
2021/09/04 11:11:42;;;;;;;20.40;8.50;;;;;;;19.71;63.21;99195.50;112215;1203;97648;-74
2021/09/04 11:14:25;;;;;;;17.50;8.20;;;;;;;19.70;63.07;99194.75;112202;1200;107423;-74
2021/09/04 11:16:58;;;;;;;18.70;8.70;;;;;;;19.66;63.14;99196.96;112090;1196;97620;-74